Time;durP1;ratioP1;P1;durP2;ratioP2;P2;SDS_P1;SDS_P2;PMS_P1;PMS_P2;Temp;Humidity;BMP_temperature;BMP_pressure;BME280_temperature;BME280_humidity;BME280_pressure;Samples;Min_cycle;Max_cycle;Signal;HPM_P1;HPM_P2
2022/08/27 00:01:34;;;;;;;1.20;1.10;;;;;;;31.46;26.64;97732.38;5004237;28;20029;-83
2022/08/27 00:04:00;;;;;;;4.95;1.50;;;;;;;31.69;25.81;97725.78;4998649;28;20034;-83
2022/08/27 00:06:26;;;;;;;2.45;1.38;;;;;;;32.19;25.26;97726.44;5004781;28;20092;-83
2022/08/27 00:08:53;;;;;;;1.52;1.10;;;;;;;32.71;24.74;97735.84;5001625;28;20482;-83
2022/08/27 00:11:24;;;;;;;3.30;1.23;;;;;;;32.72;24.28;97735.34;5001227;28;20038;-83
2022/08/27 00:13:50;;;;;;;2.63;1.65;;;;;;;32.62;24.23;97724.66;5000589;28;20038;-83
2022/08/27 00:16:17;;;;;;;1.90;1.33;;;;;;;32.68;24.62;97731.94;5004537;28;20022;-83
2022/08/27 00:18:45;;;;;;;1.45;1.33;;;;;;;32.94;24.36;97728.31;5000135;28;20054;-83
2022/08/27 00:21:11;;;;;;;1.80;1.13;;;;;;;32.98;24.40;97728.88;5005249;28;20055;-83
2022/08/27 00:23:38;;;;;;;1.67;1.45;;;;;;;33.16;23.75;97726.50;5006709;28;20105;-83
2022/08/27 00:26:05;;;;;;;1.98;1.40;;;;;;;33.34;23.68;97731.81;5004972;28;20042;-82
2022/08/27 00:28:32;;;;;;;2.35;1.30;;;;;;;33.33;24.30;97735.13;5004070;28;20045;-82
2022/08/27 00:30:58;;;;;;;2.08;1.33;;;;;;;33.25;24.10;97736.91;5009353;28;20034;-83
2022/08/27 00:33:26;;;;;;;2.13;1.65;;;;;;;33.20;24.16;97743.31;5006642;28;20034;-83
2022/08/27 00:35:53;;;;;;;1.70;1.30;;;;;;;33.03;24.40;97739.53;5004443;28;20383;-83
2022/08/27 00:38:21;;;;;;;2.70;1.10;;;;;;;32.83;24.85;97740.38;5004297;28;20104;-83
2022/08/27 00:40:48;;;;;;;2.20;1.70;;;;;;;32.89;24.75;97741.19;5004368;28;20038;-83
2022/08/27 00:43:24;;;;;;;1.48;1.38;;;;;;;32.75;25.08;97744.94;5003468;28;20180;-83
2022/08/27 00:45:54;;;;;;;2.47;1.50;;;;;;;32.76;24.86;97746.50;5000617;28;20516;-83
2022/08/27 00:48:23;;;;;;;2.58;1.40;;;;;;;32.54;24.87;97740.56;5003299;28;20053;-83
2022/08/27 00:50:53;;;;;;;2.22;1.52;;;;;;;32.26;25.98;97753.66;5004544;28;20057;-83
2022/08/27 00:53:22;;;;;;;4.27;1.17;;;;;;;32.09;25.61;97740.03;5005453;28;20044;-83
2022/08/27 00:55:58;;;;;;;2.25;1.25;;;;;;;32.19;25.87;97737.03;5004130;28;20621;-83
2022/08/27 00:58:36;;;;;;;2.30;1.33;;;;;;;32.32;25.53;97738.25;5020256;28;20030;-83
2022/08/27 01:01:05;;;;;;;1.95;1.45;;;;;;;32.03;25.86;97742.03;5000485;28;20046;-83
2022/08/27 01:03:31;;;;;;;1.63;1.40;;;;;;;31.93;25.73;97736.94;5009706;28;20034;-83
2022/08/27 01:06:00;;;;;;;1.98;1.63;;;;;;;32.11;25.68;97731.03;5002155;28;20096;-83
2022/08/27 01:08:32;;;;;;;2.65;1.38;;;;;;;31.92;26.20;97730.50;5006580;28;20030;-83
2022/08/27 01:10:59;;;;;;;2.75;1.40;;;;;;;32.20;25.44;97732.94;5013375;28;20038;-83
2022/08/27 01:13:30;;;;;;;1.52;1.27;;;;;;;32.29;25.83;97721.41;5022224;28;20030;-83
2022/08/27 01:15:58;;;;;;;1.73;1.45;;;;;;;32.42;25.47;97733.97;5004699;28;20497;-83
2022/08/27 01:18:26;;;;;;;2.08;1.17;;;;;;;32.77;25.08;97733.09;4999027;28;20508;-83
2022/08/27 01:20:59;;;;;;;3.22;1.13;;;;;;;32.92;24.98;97731.66;5009971;28;20525;-83
2022/08/27 01:23:58;;;;;;;1.55;1.30;;;;;;;32.79;24.86;97739.84;5013414;28;20048;-83
2022/08/27 01:26:24;;;;;;;3.65;1.90;;;;;;;32.54;24.98;97727.16;5000615;28;20027;-83
2022/08/27 01:28:51;;;;;;;3.90;1.40;;;;;;;32.56;24.93;97733.13;4999490;28;20187;-82
2022/08/27 01:31:18;;;;;;;3.50;1.65;;;;;;;32.64;25.04;97730.63;5010621;28;20038;-83
2022/08/27 01:34:00;;;;;;;1.60;1.40;;;;;;;32.50;25.51;97726.59;5003401;28;20038;-83
2022/08/27 01:36:26;;;;;;;1.85;1.30;;;;;;;32.66;24.97;97730.88;5005342;28;20042;-83
2022/08/27 01:38:53;;;;;;;3.03;1.35;;;;;;;32.47;25.12;97730.41;5005509;28;20060;-83
2022/08/27 01:41:20;;;;;;;2.03;1.73;;;;;;;32.35;25.71;97728.72;5005826;28;20053;-83
2022/08/27 01:43:47;;;;;;;1.48;1.38;;;;;;;32.43;25.57;97715.63;5004492;28;20056;-83
2022/08/27 01:46:13;;;;;;;2.33;1.52;;;;;;;32.36;25.55;97732.34;5005975;28;20036;-83
2022/08/27 01:48:39;;;;;;;1.52;1.23;;;;;;;32.45;25.63;97721.59;5005594;28;20026;-83
2022/08/27 01:51:05;;;;;;;1.98;1.35;;;;;;;32.60;24.96;97722.28;5004812;28;20040;-83
2022/08/27 01:53:32;;;;;;;3.45;1.58;;;;;;;32.74;24.61;97723.50;5002820;28;20037;-83
2022/08/27 01:55:58;;;;;;;2.83;1.73;;;;;;;32.82;24.79;97718.13;5006120;28;20039;-83
2022/08/27 01:58:28;;;;;;;3.15;1.70;;;;;;;32.72;25.27;97715.44;5004529;28;20080;-82
2022/08/27 02:00:58;;;;;;;3.72;1.70;;;;;;;32.82;24.94;97716.06;5003045;28;20123;-83
2022/08/27 02:03:24;;;;;;;2.10;1.27;;;;;;;32.72;24.68;97721.13;5003847;28;20486;-83
2022/08/27 02:05:51;;;;;;;1.50;1.40;;;;;;;32.71;24.57;97721.63;5000156;28;20038;-83
2022/08/27 02:08:18;;;;;;;1.98;1.20;;;;;;;32.74;24.48;97723.50;5001384;28;20033;-82
2022/08/27 02:10:46;;;;;;;2.05;1.20;;;;;;;32.67;24.86;97721.09;5005592;28;20036;-83
2022/08/27 02:13:13;;;;;;;3.20;1.48;;;;;;;32.78;24.65;97726.88;5005568;28;20160;-83
2022/08/27 02:15:40;;;;;;;3.30;1.50;;;;;;;32.94;24.80;97726.25;5008201;28;20084;-83
2022/08/27 02:18:07;;;;;;;3.22;1.23;;;;;;;32.78;24.65;97726.88;5004122;28;20398;-82
2022/08/27 02:20:33;;;;;;;2.22;1.25;;;;;;;32.71;24.55;97716.75;5003741;28;20445;-82
2022/08/27 02:23:00;;;;;;;1.63;1.25;;;;;;;32.66;24.86;97714.63;5003761;28;20046;-83
2022/08/27 02:25:27;;;;;;;3.75;1.38;;;;;;;32.35;25.20;97714.50;5002647;28;20073;-82
2022/08/27 02:27:55;;;;;;;1.85;1.55;;;;;;;32.25;25.25;97715.16;5004731;28;20030;-83
2022/08/27 02:30:23;;;;;;;4.88;1.38;;;;;;;32.19;25.74;97717.16;5004738;28;20022;-82
2022/08/27 02:32:51;;;;;;;2.53;1.42;;;;;;;32.41;24.96;97708.88;5005862;28;20053;-83
2022/08/27 02:35:22;;;;;;;2.55;1.35;;;;;;;32.49;24.97;97710.81;5002226;28;20034;-83
2022/08/27 02:37:49;;;;;;;1.90;1.50;;;;;;;32.39;25.11;97717.13;5003381;28;20045;-83
2022/08/27 02:40:17;;;;;;;3.50;1.10;;;;;;;32.48;25.30;97714.13;5001945;28;20063;-83
2022/08/27 02:42:45;;;;;;;2.03;1.35;;;;;;;32.58;25.05;97707.03;5002807;28;20034;-83
2022/08/27 02:45:12;;;;;;;1.50;1.20;;;;;;;32.54;24.90;97712.16;5003196;28;20145;-83
2022/08/27 02:47:39;;;;;;;1.40;1.10;;;;;;;32.55;24.59;97710.88;5001670;28;20034;-82
2022/08/27 02:50:06;;;;;;;1.35;1.23;;;;;;;32.48;24.91;97706.41;5005882;28;20523;-83
2022/08/27 02:52:33;;;;;;;1.95;1.23;;;;;;;32.63;25.05;97709.94;5002244;28;20038;-83
2022/08/27 02:54:59;;;;;;;2.35;1.60;;;;;;;32.75;25.03;97705.91;5004085;28;20037;-82
2022/08/27 02:57:26;;;;;;;1.30;1.08;;;;;;;32.70;25.35;97714.38;5005641;28;20116;-83
2022/08/27 02:59:52;;;;;;;4.32;1.15;;;;;;;32.79;24.59;97704.91;5002169;28;21029;-82
2022/08/27 03:02:20;;;;;;;2.88;1.10;;;;;;;32.83;24.66;97705.47;5003174;28;20944;-83
2022/08/27 03:04:46;;;;;;;1.85;1.60;;;;;;;32.95;23.95;97701.44;5004081;28;20570;-83
2022/08/27 03:07:12;;;;;;;1.42;1.17;;;;;;;32.81;24.25;97702.34;5008723;28;20040;-82
2022/08/27 03:09:39;;;;;;;2.22;1.35;;;;;;;32.40;24.96;97710.16;4999725;28;20053;-82
2022/08/27 03:12:05;;;;;;;6.72;2.45;;;;;;;32.18;25.38;97702.19;5008124;28;20030;-82
2022/08/27 03:14:32;;;;;;;1.30;1.20;;;;;;;32.10;25.40;97706.72;5004791;28;20057;-82
2022/08/27 03:18:17;;;;;;;2.72;1.10;;;;;;;32.29;24.98;97701.50;5006780;28;20030;-83
2022/08/27 03:19:48;;;;;;;3.40;1.58;;;;;;;32.19;25.25;97700.88;5006132;28;20030;-83
2022/08/27 03:22:14;;;;;;;2.22;1.30;;;;;;;32.03;25.16;97698.63;5004000;28;20117;-82
2022/08/27 03:24:40;;;;;;;1.42;1.30;;;;;;;31.97;25.26;97698.53;5001948;28;20045;-82
2022/08/27 03:27:07;;;;;;;2.15;1.10;;;;;;;31.98;25.57;97700.13;5003631;28;20505;-83
2022/08/27 03:29:35;;;;;;;2.00;1.08;;;;;;;32.03;25.56;97701.47;5004214;28;20506;-83
2022/08/27 03:32:04;;;;;;;1.85;1.02;;;;;;;32.11;25.27;97696.94;5003717;28;20041;-82
2022/08/27 03:34:30;;;;;;;2.08;1.30;;;;;;;32.28;24.85;97697.88;5000989;28;20038;-83
2022/08/27 03:36:56;;;;;;;2.08;1.10;;;;;;;32.18;24.92;97698.56;5004655;28;20387;-83
2022/08/27 03:39:22;;;;;;;3.25;1.27;;;;;;;32.39;25.28;97694.41;5005039;28;20085;-82
2022/08/27 03:41:49;;;;;;;1.45;0.90;;;;;;;32.58;24.89;97693.59;5001571;28;20050;-82
2022/08/27 03:44:15;;;;;;;1.50;1.30;;;;;;;32.55;24.60;97700.28;5000760;28;20038;-82
2022/08/27 03:46:42;;;;;;;1.45;1.35;;;;;;;32.55;24.63;97694.63;5002563;28;20445;-83
2022/08/27 03:49:08;;;;;;;1.45;1.20;;;;;;;32.46;25.03;97708.97;5000349;28;20100;-83
2022/08/27 03:51:35;;;;;;;1.30;1.20;;;;;;;32.46;24.67;97705.34;5004502;28;20403;-83
2022/08/27 03:54:01;;;;;;;2.45;1.20;;;;;;;32.16;25.39;97698.28;5000678;28;20092;-83
2022/08/27 03:56:27;;;;;;;1.83;1.15;;;;;;;32.06;25.17;97703.31;5006024;28;20042;-83
2022/08/27 03:58:53;;;;;;;1.92;1.20;;;;;;;31.99;25.23;97703.75;5006279;28;20030;-83
2022/08/27 04:01:19;;;;;;;1.52;1.42;;;;;;;31.27;26.39;97700.59;5006541;28;20034;-83
2022/08/27 04:03:45;;;;;;;1.65;1.42;;;;;;;31.14;26.69;97694.47;5004819;28;20065;-83
2022/08/27 04:06:11;;;;;;;5.60;1.65;;;;;;;31.29;26.34;97703.75;5006906;28;20045;-83
2022/08/27 04:08:37;;;;;;;1.88;1.23;;;;;;;31.46;25.98;97701.16;5004365;28;20026;-83
2022/08/27 04:11:07;;;;;;;1.30;1.20;;;;;;;31.93;25.92;97703.63;5007382;28;20073;-82
2022/08/27 04:13:33;;;;;;;1.30;1.20;;;;;;;32.29;25.68;97701.50;5006294;28;20390;-83
2022/08/27 04:15:59;;;;;;;2.45;1.20;;;;;;;32.11;25.87;97701.81;5001830;28;20035;-82
2022/08/27 04:18:25;;;;;;;2.70;1.45;;;;;;;32.16;25.47;97698.28;5002251;28;20034;-81
2022/08/27 04:20:51;;;;;;;1.42;1.20;;;;;;;32.23;25.50;97698.59;5003213;28;20053;-82
2022/08/27 04:23:18;;;;;;;1.98;1.10;;;;;;;32.78;24.98;97698.44;5004377;28;20048;-83
2022/08/27 04:25:45;;;;;;;1.30;1.10;;;;;;;33.16;24.53;97695.19;5002002;28;20030;-83
2022/08/27 04:28:12;;;;;;;1.17;1.00;;;;;;;33.61;24.16;97693.44;5002287;28;20513;-82
2022/08/27 04:30:41;;;;;;;1.10;1.00;;;;;;;34.07;23.93;97693.94;5003367;28;20037;-82
2022/08/27 04:33:07;;;;;;;1.35;1.23;;;;;;;34.43;23.67;97697.97;4999930;28;20033;-82
2022/08/27 04:35:34;;;;;;;1.30;1.20;;;;;;;34.60;23.21;97695.19;5002089;28;20034;-82
2022/08/27 04:38:00;;;;;;;1.42;1.25;;;;;;;34.02;24.24;97691.06;5006395;28;20034;-83
2022/08/27 04:41:18;;;;;;;2.65;1.67;;;;;;;33.37;24.43;97684.47;5018723;28;20030;-83
2022/08/27 04:43:14;;;;;;;1.25;1.15;;;;;;;33.53;24.75;97689.53;5006270;28;20088;-84
2022/08/27 04:45:47;;;;;;;1.40;1.30;;;;;;;33.63;25.19;97692.94;5009681;28;20026;-83
2022/08/27 04:48:16;;;;;;;1.75;1.30;;;;;;;33.70;25.20;97695.31;5008647;28;20042;-83
2022/08/27 04:50:44;;;;;;;1.60;1.15;;;;;;;34.10;24.81;97688.53;5001835;28;20038;-83
2022/08/27 04:53:12;;;;;;;1.88;1.13;;;;;;;34.41;24.96;97697.69;5000849;28;20038;-83
2022/08/27 04:55:47;;;;;;;2.42;1.50;;;;;;;34.63;24.82;97694.16;5001471;28;20134;-83
2022/08/27 04:58:14;;;;;;;2.00;1.50;;;;;;;34.33;24.90;97696.63;5016829;28;20095;-83
2022/08/27 05:00:48;;;;;;;2.22;1.45;;;;;;;33.89;26.39;97697.22;5013964;28;20081;-83
2022/08/27 05:03:16;;;;;;;1.55;1.45;;;;;;;33.58;26.42;97697.31;5002909;28;20048;-83
2022/08/27 05:05:43;;;;;;;2.13;1.90;;;;;;;33.15;27.15;97698.53;5004757;28;20035;-83
2022/08/27 05:08:12;;;;;;;1.73;1.25;;;;;;;33.13;26.94;97699.03;5003806;28;20026;-83
2022/08/27 05:10:40;;;;;;;1.48;1.38;;;;;;;33.46;26.57;97700.56;5008449;28;20026;-83
2022/08/27 05:13:07;;;;;;;3.45;1.15;;;;;;;33.65;27.20;97696.84;5003904;28;20034;-83
2022/08/27 05:15:34;;;;;;;3.10;1.20;;;;;;;33.83;26.37;97701.31;5003825;28;20023;-83
2022/08/27 05:18:01;;;;;;;3.30;1.42;;;;;;;33.90;26.03;97700.84;5004892;28;20088;-83
2022/08/27 05:20:28;;;;;;;1.42;1.23;;;;;;;34.09;26.23;97702.00;5006831;28;20486;-83
2022/08/27 05:22:55;;;;;;;2.92;1.50;;;;;;;34.48;25.68;97699.28;5004646;28;20520;-83
2022/08/27 05:25:22;;;;;;;1.92;1.77;;;;;;;34.43;24.94;97697.97;5005966;28;20069;-83
2022/08/27 05:27:48;;;;;;;2.42;1.70;;;;;;;34.32;25.23;97697.94;5006511;28;20062;-83
2022/08/27 05:30:14;;;;;;;1.38;1.27;;;;;;;34.46;26.12;97699.78;5003185;28;20037;-83
2022/08/27 05:32:41;;;;;;;1.88;1.40;;;;;;;34.60;25.63;97695.19;4998803;28;20039;-83
2022/08/27 05:35:08;;;;;;;1.90;1.40;;;;;;;34.92;24.93;97704.28;5010487;28;20025;-83
2022/08/27 05:37:35;;;;;;;1.55;1.45;;;;;;;35.46;23.95;97701.97;5009625;28;20496;-83
2022/08/27 05:40:03;;;;;;;3.00;1.42;;;;;;;35.93;23.58;97698.00;5011267;28;20041;-83
2022/08/27 05:42:30;;;;;;;2.17;1.98;;;;;;;34.61;26.08;97700.34;5008668;28;20037;-83
2022/08/27 05:44:56;;;;;;;3.38;1.75;;;;;;;34.26;25.42;97693.53;5001024;28;20037;-83
2022/08/27 05:47:23;;;;;;;1.98;1.75;;;;;;;34.41;26.08;97694.06;5003408;28;20132;-83
2022/08/27 05:49:53;;;;;;;5.03;1.70;;;;;;;33.73;27.68;97697.91;5005467;28;20624;-83
2022/08/27 05:52:20;;;;;;;1.92;1.67;;;;;;;33.56;27.96;97688.47;5004350;28;20042;-83
2022/08/27 05:54:47;;;;;;;2.22;2.03;;;;;;;33.71;27.71;97694.00;5000156;28;20109;-83
2022/08/27 05:57:13;;;;;;;2.20;2.00;;;;;;;34.12;27.93;97695.28;5003951;28;20049;-83
2022/08/27 06:02:24;;;;;;;2.92;1.85;;;;;;;34.10;25.73;97694.25;5000838;28;20621;-83
2022/08/27 06:04:50;;;;;;;3.13;2.00;;;;;;;34.02;26.69;97689.00;4998837;28;20042;-84
2022/08/27 06:07:22;;;;;;;2.58;1.85;;;;;;;34.59;26.76;97694.41;4999572;28;20076;-83
2022/08/27 06:09:48;;;;;;;2.92;2.08;;;;;;;34.52;27.33;97703.47;5000708;28;20037;-84
2022/08/27 06:12:14;;;;;;;2.63;2.33;;;;;;;34.82;26.86;97705.84;5007330;28;20386;-83
2022/08/27 06:14:41;;;;;;;4.82;2.05;;;;;;;35.05;26.63;97713.16;5006430;28;20490;-83
2022/08/27 06:17:07;;;;;;;2.65;1.83;;;;;;;35.30;26.40;97712.91;5007646;28;20022;-83
2022/08/27 06:19:35;;;;;;;1.75;1.60;;;;;;;35.78;25.61;97715.44;5007725;28;20057;-83
2022/08/27 06:22:01;;;;;;;3.38;1.58;;;;;;;36.31;24.39;97719.19;4999262;28;20042;-82
2022/08/27 06:24:28;;;;;;;2.33;1.55;;;;;;;36.83;23.74;97731.38;5002508;28;20610;-82
2022/08/27 06:26:55;;;;;;;3.63;1.73;;;;;;;37.21;23.71;97724.63;5008744;28;20033;-82
2022/08/27 06:29:22;;;;;;;1.98;1.73;;;;;;;37.20;23.82;97716.59;5002576;28;20034;-82
2022/08/27 06:31:49;;;;;;;2.28;2.05;;;;;;;36.51;25.89;97719.63;5017055;28;20064;-82
2022/08/27 06:34:15;;;;;;;3.03;1.88;;;;;;;36.28;24.99;97715.28;4995600;28;20026;-82
2022/08/27 06:36:41;;;;;;;3.22;1.95;;;;;;;35.66;27.44;97716.75;5004765;28;20081;-82
2022/08/27 06:39:12;;;;;;;1.63;1.38;;;;;;;35.78;26.41;97714.69;4999432;28;20030;-83
2022/08/27 06:41:39;;;;;;;2.42;1.95;;;;;;;35.93;25.30;97715.91;4995537;28;20030;-82
2022/08/27 06:44:05;;;;;;;4.20;1.45;;;;;;;36.54;25.12;97718.56;5005363;28;20083;-82
2022/08/27 06:46:32;;;;;;;2.05;1.90;;;;;;;36.94;24.52;97716.25;5003011;28;20030;-82
2022/08/27 06:48:59;;;;;;;2.22;1.52;;;;;;;36.91;24.25;97729.56;5005744;28;20080;-82
2022/08/27 06:51:29;;;;;;;1.70;1.55;;;;;;;36.33;27.65;97719.44;5005402;28;20057;-82
2022/08/27 06:53:58;;;;;;;1.40;1.25;;;;;;;36.45;25.58;97726.69;5010699;28;20069;-82
2022/08/27 06:56:25;;;;;;;1.98;1.83;;;;;;;37.01;24.45;97721.41;5003406;28;20062;-83
2022/08/27 06:58:54;;;;;;;3.30;1.50;;;;;;;37.16;25.46;97724.66;4999937;28;20061;-82
2022/08/27 07:01:26;;;;;;;1.63;1.52;;;;;;;36.65;24.33;97726.31;4999688;28;20494;-82
2022/08/27 07:03:56;;;;;;;1.63;1.52;;;;;;;36.81;24.03;97728.28;5003448;28;20076;-85
2022/08/27 07:06:23;;;;;;;1.40;1.30;;;;;;;37.30;23.69;97729.22;5007969;28;20057;-86
2022/08/27 07:08:56;;;;;;;1.42;1.33;;;;;;;37.07;25.58;97728.66;5000808;28;20084;-91
2022/08/27 07:11:24;;;;;;;4.50;1.55;;;;;;;37.04;25.05;97723.22;5003946;28;20117;-86
2022/08/27 07:13:51;;;;;;;1.73;1.40;;;;;;;37.48;24.06;97722.88;5000099;28;20045;-86
2022/08/27 07:16:20;;;;;;;2.55;1.48;;;;;;;38.16;24.72;97727.34;5002775;28;20500;-86
2022/08/27 07:18:48;;;;;;;2.17;1.30;;;;;;;38.39;24.58;97731.53;5006918;28;20022;-86
2022/08/27 07:21:14;;;;;;;1.58;1.48;;;;;;;38.59;24.38;97718.75;5004090;28;20449;-86
2022/08/27 07:23:40;;;;;;;2.15;1.50;;;;;;;38.31;24.45;97724.84;5001871;28;20033;-86
2022/08/27 07:26:11;;;;;;;1.52;1.42;;;;;;;38.09;24.56;97730.81;5005799;28;20124;-87
2022/08/27 07:28:42;;;;;;;2.15;1.90;;;;;;;37.86;24.95;97733.19;5004992;28;20117;-83
2022/08/27 07:31:12;;;;;;;2.83;1.88;;;;;;;37.94;24.16;97728.41;5018443;28;20046;-83
2022/08/27 07:33:41;;;;;;;1.90;1.50;;;;;;;38.11;24.42;97741.78;5003276;28;20026;-84
2022/08/27 07:36:08;;;;;;;1.97;1.70;;;;;;;38.07;24.27;97744.94;5003807;28;20113;-85
2022/08/27 07:38:35;;;;;;;2.78;1.77;;;;;;;37.88;25.21;97752.72;5003212;28;20026;-84
2022/08/27 07:41:09;;;;;;;1.63;1.50;;;;;;;37.95;25.04;97752.13;5005557;28;20184;-83
2022/08/27 07:46:22;;;;;;;2.53;1.50;;;;;;;38.25;24.36;97747.06;5000581;28;20513;-83
2022/08/27 07:48:49;;;;;;;2.15;1.77;;;;;;;38.22;24.27;97750.22;5001561;28;20034;-84
2022/08/27 07:51:18;;;;;;;4.65;1.38;;;;;;;37.93;25.90;97758.38;5004374;28;20498;-83
2022/08/27 07:53:48;;;;;;;1.92;1.30;;;;;;;37.75;25.72;97758.28;5012079;28;20561;-83
2022/08/27 07:56:14;;;;;;;1.85;1.50;;;;;;;38.15;25.33;97757.34;5002372;28;20129;-84
2022/08/27 07:58:41;;;;;;;2.22;2.03;;;;;;;38.63;23.65;97753.63;5000315;28;20030;-85
2022/08/27 08:01:08;;;;;;;4.22;1.58;;;;;;;38.77;23.93;97752.44;5004588;28;20073;-84
2022/08/27 08:03:34;;;;;;;1.30;1.20;;;;;;;38.86;23.14;97763.50;5003442;28;20478;-84
2022/08/27 08:06:09;;;;;;;2.42;1.73;;;;;;;38.76;25.08;97761.59;5006332;28;20073;-83
2022/08/27 08:08:36;;;;;;;5.82;1.42;;;;;;;38.88;24.37;97760.13;4998010;28;20026;-83
2022/08/27 08:11:02;;;;;;;2.55;1.67;;;;;;;37.96;24.20;97768.00;4998015;28;20909;-84
2022/08/27 08:13:30;;;;;;;1.75;1.55;;;;;;;37.88;24.89;97778.53;5008488;28;20026;-84
2022/08/27 08:15:58;;;;;;;2.65;1.70;;;;;;;37.83;25.19;97779.34;5001126;28;20038;-83
2022/08/27 08:18:24;;;;;;;6.30;2.50;;;;;;;37.37;22.91;97792.47;5018203;28;20073;-83
2022/08/27 08:20:50;;;;;;;3.90;1.92;;;;;;;36.87;25.07;97794.88;4996943;28;20058;-83
2022/08/27 08:23:16;;;;;;;2.17;1.95;;;;;;;37.18;24.79;97790.78;4994066;28;20506;-84
2022/08/27 08:25:42;;;;;;;2.28;2.08;;;;;;;37.52;24.45;97794.19;4998635;28;21550;-83
2022/08/27 08:28:10;;;;;;;1.88;1.58;;;;;;;38.05;23.90;97791.34;5000602;28;20037;-84
2022/08/27 08:30:37;;;;;;;1.52;1.38;;;;;;;37.59;24.04;97790.75;4998473;28;20421;-84
2022/08/27 08:33:03;;;;;;;3.03;1.92;;;;;;;37.57;24.35;97793.38;5005298;28;20108;-84
2022/08/27 08:35:29;;;;;;;2.08;1.88;;;;;;;37.31;25.17;97802.41;5013144;28;20461;-84
2022/08/27 08:37:55;;;;;;;2.45;2.10;;;;;;;37.06;24.90;97798.66;5012853;28;20035;-84
2022/08/27 08:40:40;;;;;;;3.10;2.13;;;;;;;36.66;25.12;97796.53;5010239;28;20057;-84
2022/08/27 08:43:22;;;;;;;3.72;2.65;;;;;;;37.05;24.66;97797.13;5007791;28;20095;-84
2022/08/27 08:45:49;;;;;;;3.90;2.22;;;;;;;37.33;23.92;97794.84;5004347;28;20097;-84
2022/08/27 08:48:20;;;;;;;3.15;2.60;;;;;;;37.71;26.17;97792.97;5022818;28;20409;-83
2022/08/27 08:51:04;;;;;;;2.70;2.42;;;;;;;36.93;25.54;97792.75;5003225;28;20030;-85
2022/08/27 08:53:56;;;;;;;2.75;2.47;;;;;;;37.19;25.62;97798.84;5005735;28;20036;-85
2022/08/27 08:56:39;;;;;;;4.90;2.90;;;;;;;37.52;24.97;97803.56;5003115;28;20088;-83
2022/08/27 08:59:30;;;;;;;2.78;2.20;;;;;;;37.59;24.76;97802.19;5000729;28;20042;-84
2022/08/27 09:01:57;;;;;;;2.42;2.22;;;;;;;37.96;24.39;97802.41;5013627;28;20044;-84
2022/08/27 09:04:25;;;;;;;3.72;2.90;;;;;;;37.50;25.55;97799.69;5002806;28;20550;-85
2022/08/27 09:07:02;;;;;;;4.80;2.30;;;;;;;37.25;27.23;97788.13;5012287;28;20022;-84
2022/08/27 09:09:50;;;;;;;2.58;2.08;;;;;;;36.73;26.27;97790.25;5005051;28;20030;-83
2022/08/27 09:12:29;;;;;;;2.13;1.92;;;;;;;36.70;27.17;97797.81;5006112;28;20087;-83
2022/08/27 09:15:23;;;;;;;9.27;2.70;;;;;;;37.53;24.65;97798.63;5002252;28;20034;-83
2022/08/27 09:17:50;;;;;;;3.10;2.38;;;;;;;37.67;22.92;97789.63;5016905;28;20054;-83
2022/08/27 09:20:20;;;;;;;2.67;2.47;;;;;;;37.94;22.64;97800.09;5006351;28;20413;-83
2022/08/27 09:23:15;;;;;;;2.78;2.00;;;;;;;38.18;23.89;97799.31;5004201;28;20034;-83
2022/08/27 09:25:43;;;;;;;2.33;2.00;;;;;;;38.24;25.06;97794.28;5007878;28;20120;-80
2022/08/27 09:31:07;;;;;;;2.55;2.10;;;;;;;37.58;26.85;97800.63;5002544;28;20114;-82
2022/08/27 09:33:34;;;;;;;2.33;2.13;;;;;;;38.04;23.93;97789.78;5007350;28;20026;-82
2022/08/27 09:36:09;;;;;;;3.50;2.50;;;;;;;38.63;21.85;97794.59;5007325;28;20070;-83
2022/08/27 09:38:38;;;;;;;2.88;1.98;;;;;;;38.49;24.10;97795.81;5004602;28;20054;-82
2022/08/27 09:41:23;;;;;;;2.50;2.30;;;;;;;38.19;25.50;97791.47;5003133;28;20122;-81
2022/08/27 09:44:05;;;;;;;1.92;1.65;;;;;;;37.97;29.39;97798.97;5006503;28;20045;-82
2022/08/27 09:46:32;;;;;;;3.42;2.28;;;;;;;37.80;25.99;97797.59;4999446;28;20061;-81
2022/08/27 09:49:08;;;;;;;3.95;2.97;;;;;;;38.09;24.81;97788.19;5011931;28;20363;-81
2022/08/27 09:51:38;;;;;;;4.25;2.80;;;;;;;38.04;25.30;97786.16;5011635;28;20033;-81
2022/08/27 09:54:05;;;;;;;3.08;2.10;;;;;;;38.89;23.83;97778.88;5015347;28;20034;-81
2022/08/27 09:56:45;;;;;;;5.68;2.15;;;;;;;39.14;26.28;97778.22;5013133;28;20402;-81
2022/08/27 09:59:21;;;;;;;;;;;;;;;38.12;23.14;97783.47;5006716;28;20109;-81
2022/08/27 10:01:55;;;;;;;2.90;2.50;;;;;;;38.70;24.51;97779.63;5007679;28;19921;-80
2022/08/27 10:04:36;;;;;;;4.25;2.00;;;;;;;39.65;22.84;97784.00;5012699;28;20037;-81
2022/08/27 10:07:30;;;;;;;5.22;2.13;;;;;;;39.64;22.27;97779.56;5008328;28;20570;-81
2022/08/27 10:10:38;;;;;;;2.40;2.00;;;;;;;39.62;22.05;97787.97;5012586;28;20046;-81
2022/08/27 10:13:19;;;;;;;2.33;2.13;;;;;;;39.06;25.15;97788.03;5001642;28;20050;-80
2022/08/27 10:16:22;;;;;;;5.07;2.33;;;;;;;38.97;22.36;97777.72;4998966;28;20363;-81
2022/08/27 10:19:12;;;;;;;3.08;2.15;;;;;;;39.33;22.03;97790.50;5003895;28;20026;-83
2022/08/27 10:22:02;;;;;;;2.30;2.10;;;;;;;39.05;24.76;97793.00;5011144;28;20409;-81
2022/08/27 10:24:55;;;;;;;3.83;2.38;;;;;;;39.00;23.16;97788.09;5010579;28;20055;-80
2022/08/27 10:27:43;;;;;;;3.83;2.40;;;;;;;39.64;24.72;97791.06;5010531;28;20084;-80
2022/08/27 10:30:27;;;;;;;4.00;2.55;;;;;;;39.43;23.22;97790.88;5004097;28;20085;-79
2022/08/27 10:33:04;;;;;;;5.07;2.67;;;;;;;39.20;23.25;97786.81;5005082;28;20065;-78
2022/08/27 10:35:37;;;;;;;4.72;2.65;;;;;;;39.86;22.30;97779.19;5004738;28;20026;-79
2022/08/27 10:38:16;;;;;;;5.95;2.00;;;;;;;40.32;21.85;97783.56;5001367;28;20037;-79
2022/08/27 10:40:53;;;;;;;3.80;2.47;;;;;;;39.40;25.18;97782.59;5005693;28;20034;-79
2022/08/27 10:43:47;;;;;;;5.70;3.15;;;;;;;37.93;26.39;97784.19;5012744;28;20034;-79
2022/08/27 10:46:41;;;;;;;4.50;2.83;;;;;;;38.59;24.64;97779.78;5025273;28;20037;-78
2022/08/27 10:49:51;;;;;;;3.63;3.15;;;;;;;38.96;24.59;97776.16;5013253;28;20113;-79
2022/08/27 10:52:48;;;;;;;5.25;2.45;;;;;;;39.75;23.29;97783.03;5004932;28;20045;-79
2022/08/27 10:55:17;;;;;;;3.10;2.75;;;;;;;39.57;21.55;97775.22;5015639;28;20018;-78
2022/08/27 10:58:00;;;;;;;2.30;2.10;;;;;;;40.04;23.58;97778.34;5014127;28;20489;-79
2022/08/27 11:00:41;;;;;;;6.18;2.80;;;;;;;40.38;23.89;97775.56;5000258;28;20079;-79
2022/08/27 11:03:42;;;;;;;4.45;2.72;;;;;;;39.52;25.66;97773.22;4996405;28;20489;-79
2022/08/27 11:06:30;;;;;;;3.17;2.72;;;;;;;40.11;23.21;97780.56;4994141;28;20074;-79
2022/08/27 11:09:22;;;;;;;2.88;2.67;;;;;;;40.04;25.62;97778.34;5006103;28;20085;-79
2022/08/27 11:12:01;;;;;;;3.10;2.80;;;;;;;40.22;23.89;97785.31;4997503;28;20069;-79
2022/08/27 11:14:46;;;;;;;5.30;3.50;;;;;;;39.33;25.53;97781.88;5004521;28;20072;-79
2022/08/27 11:17:29;;;;;;;6.10;4.25;;;;;;;39.40;26.36;97783.34;5005601;28;20037;-80
2022/08/27 11:20:12;;;;;;;4.65;4.15;;;;;;;39.29;27.56;97784.31;5001558;28;20136;-80
2022/08/27 11:22:58;;;;;;;7.07;4.18;;;;;;;38.72;25.25;97784.09;5003933;28;20034;-81
2022/08/27 11:25:31;;;;;;;4.30;3.78;;;;;;;38.66;28.51;97781.25;5004487;28;20554;-80
2022/08/27 11:27:59;;;;;;;3.95;3.65;;;;;;;38.83;28.13;97778.97;4999560;28;20034;-82
2022/08/27 11:30:30;;;;;;;5.45;4.05;;;;;;;38.56;28.82;97780.09;5005745;28;20034;-81
2022/08/27 11:33:27;;;;;;;4.45;4.05;;;;;;;39.09;26.01;97781.22;4998054;28;20050;-80
2022/08/27 11:36:12;;;;;;;4.93;4.07;;;;;;;39.29;24.26;97778.56;4998805;28;20442;-80
2022/08/27 11:38:53;;;;;;;4.05;3.65;;;;;;;39.94;26.48;97765.69;4999674;28;20027;-81
2022/08/27 11:41:46;;;;;;;4.53;4.10;;;;;;;39.80;26.28;97764.91;5004423;28;20033;-81
2022/08/27 11:44:14;;;;;;;4.45;3.83;;;;;;;39.87;25.26;97767.13;4997616;28;20038;-81
2022/08/27 11:46:47;;;;;;;6.32;4.22;;;;;;;38.90;27.30;97758.25;5004003;28;20390;-81
2022/08/27 11:49:25;;;;;;;5.45;4.00;;;;;;;39.53;25.82;97762.50;5003000;28;20030;-81
2022/08/27 11:52:07;;;;;;;5.50;3.72;;;;;;;39.92;24.28;97763.38;5002621;28;20445;-80
2022/08/27 11:54:46;;;;;;;5.18;4.22;;;;;;;40.29;24.96;97750.13;5001468;28;20045;-82
2022/08/27 11:57:28;;;;;;;7.25;4.18;;;;;;;39.43;25.28;97765.00;4997758;28;20155;-80
2022/08/27 11:59:55;;;;;;;3.60;3.28;;;;;;;39.18;28.04;97763.59;5001271;28;20175;-81
2022/08/27 12:02:25;;;;;;;3.47;3.17;;;;;;;39.68;25.01;97752.06;5005128;28;20030;-81